createdAt,value
2018-07-16T00:00:35.872Z,0.00
2018-07-16T00:01:36.082Z,0.00
2018-07-16T00:02:35.693Z,0.00
2018-07-16T00:03:35.590Z,0.00
2018-07-16T00:04:35.495Z,0.00
2018-07-16T00:05:35.404Z,0.00
2018-07-16T00:06:35.303Z,0.00
2018-07-16T00:07:35.212Z,0.00
2018-07-16T00:08:35.116Z,0.00
2018-07-16T00:09:35.013Z,0.00
2018-07-16T00:10:34.925Z,0.00
2018-07-16T00:11:34.822Z,0.00
2018-07-16T00:12:34.735Z,0.00
2018-07-16T00:13:34.645Z,0.00
2018-07-16T00:14:34.598Z,0.00
2018-07-16T00:15:34.450Z,0.00
2018-07-16T00:16:34.356Z,0.00
2018-07-16T00:17:34.255Z,0.00
2018-07-16T00:18:34.158Z,0.00
2018-07-16T00:19:34.068Z,0.00
2018-07-16T00:20:33.968Z,0.00
2018-07-16T00:21:33.878Z,0.00
2018-07-16T00:22:33.773Z,0.00
2018-07-16T00:23:33.682Z,0.00
2018-07-16T00:24:33.596Z,0.00
2018-07-16T00:25:33.492Z,0.00
2018-07-16T00:26:33.400Z,0.00
2018-07-16T00:27:33.307Z,0.00
2018-07-16T00:28:33.200Z,0.00
2018-07-16T00:29:33.115Z,0.00
2018-07-16T00:30:33.013Z,0.00
2018-07-16T00:31:32.920Z,0.00
2018-07-16T00:32:32.826Z,0.00
2018-07-16T00:33:32.728Z,0.00
2018-07-16T00:34:32.646Z,0.00
2018-07-16T00:35:32.545Z,0.00
2018-07-16T00:36:32.443Z,0.00
2018-07-16T00:37:32.352Z,0.00
2018-07-16T00:38:32.243Z,0.00
2018-07-16T00:39:32.152Z,0.00
2018-07-16T00:40:32.064Z,0.00
2018-07-16T00:41:31.961Z,0.00
2018-07-16T00:42:31.874Z,0.00
2018-07-16T00:43:31.782Z,0.00
2018-07-16T00:44:31.674Z,0.00
2018-07-16T00:45:31.585Z,0.00
2018-07-16T00:46:31.736Z,0.00
2018-07-16T00:47:31.393Z,0.00
2018-07-16T00:48:31.303Z,0.00
2018-07-16T00:49:31.208Z,0.00
2018-07-16T00:50:31.102Z,0.00
2018-07-16T00:51:31.001Z,0.00
2018-07-16T00:52:30.913Z,0.00
2018-07-16T00:53:30.822Z,0.00
2018-07-16T00:54:30.716Z,0.00
2018-07-16T00:55:30.626Z,0.00
2018-07-16T00:56:30.586Z,0.00
2018-07-16T00:57:30.451Z,0.00
2018-07-16T00:58:30.344Z,0.00
2018-07-16T00:59:30.240Z,0.00
2018-07-16T01:00:30.144Z,0.00
2018-07-16T01:01:30.055Z,0.00
2018-07-16T01:02:29.955Z,0.00
2018-07-16T01:03:29.864Z,0.00
2018-07-16T01:04:29.756Z,0.00
2018-07-16T01:05:29.665Z,0.00
2018-07-16T01:06:29.876Z,0.00
2018-07-16T01:07:29.473Z,0.00
2018-07-16T01:08:29.387Z,0.00
2018-07-16T01:09:29.284Z,0.00
2018-07-16T01:10:29.186Z,0.00
2018-07-16T01:11:29.096Z,0.00
2018-07-16T01:12:28.997Z,0.00
2018-07-16T01:13:28.905Z,0.00
2018-07-16T01:14:28.804Z,0.00
2018-07-16T01:15:28.714Z,0.00
2018-07-16T01:16:28.619Z,0.00
2018-07-16T01:17:28.515Z,0.00
2018-07-16T01:18:28.426Z,0.00
2018-07-16T01:19:28.323Z,0.00
2018-07-16T01:20:28.227Z,0.00
2018-07-16T01:21:28.126Z,0.00
2018-07-16T01:22:28.036Z,0.00
2018-07-16T01:23:27.945Z,0.00
2018-07-16T01:24:27.868Z,0.00
2018-07-16T01:25:27.756Z,0.00
2018-07-16T01:26:27.646Z,0.00
2018-07-16T01:27:27.554Z,0.00
2018-07-16T01:28:27.468Z,0.00
2018-07-16T01:29:27.365Z,0.00
2018-07-16T01:30:27.276Z,0.00
2018-07-16T01:31:27.172Z,0.00
2018-07-16T01:32:27.071Z,0.00
2018-07-16T01:33:26.986Z,0.00
2018-07-16T01:34:26.887Z,0.00
2018-07-16T01:35:26.798Z,0.00
2018-07-16T01:36:26.690Z,0.00
2018-07-16T01:37:26.599Z,0.00
2018-07-16T01:38:26.493Z,0.00
2018-07-16T01:39:26.402Z,0.00
2018-07-16T01:40:26.315Z,0.00
2018-07-16T01:41:26.214Z,0.00
2018-07-16T01:42:26.119Z,0.00
2018-07-16T01:43:26.016Z,0.00
2018-07-16T01:44:25.930Z,0.00
2018-07-16T01:45:25.827Z,0.00
2018-07-16T01:46:25.735Z,0.00
2018-07-16T01:47:25.642Z,0.00
2018-07-16T01:48:25.536Z,0.00
2018-07-16T01:49:25.451Z,0.00
2018-07-16T01:50:25.345Z,0.00
2018-07-16T01:51:25.255Z,0.00
2018-07-16T01:52:25.150Z,0.00
2018-07-16T01:53:25.058Z,0.00
2018-07-16T01:54:24.967Z,0.00
2018-07-16T01:55:24.877Z,0.00
2018-07-16T01:56:24.778Z,0.00
2018-07-16T01:57:24.674Z,0.00
2018-07-16T01:58:24.577Z,0.00
2018-07-16T01:59:24.475Z,0.00
2018-07-16T02:00:24.387Z,0.00
2018-07-16T02:01:24.283Z,0.00
2018-07-16T02:02:24.196Z,0.00
2018-07-16T02:03:24.105Z,0.00
2018-07-16T02:04:24.000Z,0.00
2018-07-16T02:05:23.918Z,0.00
2018-07-16T02:06:23.810Z,0.00
2018-07-16T02:07:23.717Z,0.00
2018-07-16T02:08:23.609Z,0.00
2018-07-16T02:09:23.517Z,0.00
2018-07-16T02:10:23.412Z,0.00
2018-07-16T02:11:23.322Z,0.00
2018-07-16T02:12:23.222Z,0.00
2018-07-16T02:13:23.131Z,0.00
2018-07-16T02:14:23.039Z,0.00
2018-07-16T02:15:22.937Z,0.00
2018-07-16T02:16:22.849Z,0.00
2018-07-16T02:17:22.750Z,0.00
2018-07-16T02:18:22.653Z,0.00
2018-07-16T02:19:22.551Z,0.00
2018-07-16T02:20:22.454Z,0.00
2018-07-16T02:21:22.351Z,4.00
2018-07-16T02:22:22.264Z,4.00
2018-07-16T02:23:22.158Z,4.00
2018-07-16T02:24:22.070Z,4.00
2018-07-16T02:25:21.985Z,0.00
2018-07-16T02:26:21.878Z,4.00
2018-07-16T02:27:21.788Z,4.00
2018-07-16T02:28:21.680Z,8.00
2018-07-16T02:29:21.592Z,4.00
2018-07-16T02:30:21.495Z,8.00
2018-07-16T02:31:21.396Z,8.00
2018-07-16T02:32:21.289Z,8.00
2018-07-16T02:33:21.200Z,8.00
2018-07-16T02:34:21.098Z,12.00
2018-07-16T02:35:21.007Z,12.00
2018-07-16T02:36:20.909Z,12.00
2018-07-16T02:37:20.817Z,16.00
2018-07-16T02:38:20.712Z,16.00
2018-07-16T02:39:20.623Z,20.00
2018-07-16T02:40:20.521Z,24.00
2018-07-16T02:41:20.429Z,24.00
2018-07-16T02:42:20.337Z,28.00
2018-07-16T02:43:20.234Z,32.00
2018-07-16T02:44:20.138Z,36.00
2018-07-16T02:45:20.036Z,40.00
2018-07-16T02:46:19.950Z,44.00
2018-07-16T02:47:19.846Z,48.00
2018-07-16T02:48:19.752Z,52.00
2018-07-16T02:49:19.649Z,56.00
2018-07-16T02:50:19.555Z,64.00
2018-07-16T02:51:19.452Z,72.00
2018-07-16T02:52:19.366Z,80.00
2018-07-16T02:53:19.262Z,84.00
2018-07-16T02:54:19.167Z,96.00
2018-07-16T02:55:19.064Z,100.00
2018-07-16T02:56:19.067Z,112.00
2018-07-16T02:57:18.876Z,120.00
2018-07-16T02:58:18.786Z,132.00
2018-07-16T02:59:18.686Z,144.00
2018-07-16T03:00:18.588Z,152.00
2018-07-16T03:01:18.734Z,168.00
2018-07-16T03:02:18.398Z,180.00
2018-07-16T03:03:18.304Z,192.00
2018-07-16T03:04:18.197Z,208.00
2018-07-16T03:05:18.106Z,224.00
2018-07-16T03:06:18.005Z,240.00
2018-07-16T03:07:17.914Z,256.00
2018-07-16T03:08:17.815Z,272.00
2018-07-16T03:09:17.725Z,288.00
2018-07-16T03:10:17.617Z,304.00
2018-07-16T03:11:17.526Z,324.00
2018-07-16T03:12:17.458Z,344.00
2018-07-16T03:13:17.338Z,360.00
2018-07-16T03:14:17.230Z,384.00
2018-07-16T03:15:17.142Z,400.00
2018-07-16T03:16:17.033Z,420.00
2018-07-16T03:17:16.941Z,440.00
2018-07-16T03:18:16.844Z,464.00
2018-07-16T03:19:16.754Z,484.00
2018-07-16T03:20:16.647Z,508.00
2018-07-16T03:21:16.555Z,536.00
2018-07-16T03:22:16.450Z,556.00
2018-07-16T03:23:16.359Z,580.00
2018-07-16T03:24:16.260Z,600.00
2018-07-16T03:25:16.168Z,624.00
2018-07-16T03:26:16.064Z,648.00
2018-07-16T03:27:15.973Z,668.00
2018-07-16T03:28:15.874Z,692.00
2018-07-16T03:29:15.782Z,728.00
2018-07-16T03:30:15.677Z,756.00
2018-07-16T03:31:15.589Z,792.00
2018-07-16T03:32:15.480Z,828.00
2018-07-16T03:33:15.387Z,864.00
2018-07-16T03:34:15.290Z,900.00
2018-07-16T03:35:15.201Z,940.00
2018-07-16T03:36:15.093Z,980.00
2018-07-16T03:37:15.002Z,1028.00
2018-07-16T03:38:14.898Z,1072.00
2018-07-16T03:39:14.806Z,1112.00
2018-07-16T03:40:14.706Z,1148.00
2018-07-16T03:41:14.615Z,1188.00
2018-07-16T03:42:14.509Z,1216.00
2018-07-16T03:43:14.417Z,1256.00
2018-07-16T03:44:14.319Z,1288.00
2018-07-16T03:45:14.227Z,1332.00
2018-07-16T03:46:14.127Z,1376.00
2018-07-16T03:47:14.036Z,1428.00
2018-07-16T03:48:13.941Z,1476.00
2018-07-16T03:49:13.852Z,1500.00
2018-07-16T03:50:13.749Z,1508.00
2018-07-16T03:51:13.895Z,1524.00
2018-07-16T03:52:13.549Z,1564.00
2018-07-16T03:53:13.447Z,1612.00
2018-07-16T03:54:13.358Z,1664.00
2018-07-16T03:55:13.256Z,1728.00
2018-07-16T03:56:13.168Z,1792.00
2018-07-16T03:57:13.064Z,1864.00
2018-07-16T03:58:12.973Z,1936.00
2018-07-16T03:59:12.867Z,1996.00
2018-07-16T04:00:12.780Z,2068.00
2018-07-16T04:01:12.977Z,2176.00
2018-07-16T04:02:12.583Z,2288.00
2018-07-16T04:03:12.494Z,2316.00
2018-07-16T04:04:12.385Z,2280.00
2018-07-16T04:05:12.295Z,2252.00
2018-07-16T04:06:12.198Z,2256.00
2018-07-16T04:07:12.107Z,2228.00
2018-07-16T04:08:11.999Z,2208.00
2018-07-16T04:09:11.910Z,2228.00
2018-07-16T04:10:11.816Z,2244.00
2018-07-16T04:11:11.712Z,2264.00
2018-07-16T04:12:11.626Z,2300.00
2018-07-16T04:13:11.523Z,2336.00
2018-07-16T04:14:11.427Z,2376.00
2018-07-16T04:15:11.348Z,2420.00
2018-07-16T04:16:11.237Z,2492.00
2018-07-16T04:17:11.146Z,2612.00
2018-07-16T04:18:11.045Z,2680.00
2018-07-16T04:19:10.955Z,2748.00
2018-07-16T04:20:10.847Z,2768.00
2018-07-16T04:21:10.756Z,2700.00
2018-07-16T04:22:10.669Z,2692.00
2018-07-16T04:23:10.567Z,2752.00
2018-07-16T04:24:10.473Z,2888.00
2018-07-16T04:25:10.366Z,3028.00
2018-07-16T04:26:10.278Z,3036.00
2018-07-16T04:27:10.191Z,3116.00
2018-07-16T04:28:10.120Z,3236.00
2018-07-16T04:29:09.998Z,3128.00
2018-07-16T04:30:09.899Z,3028.00
2018-07-16T04:31:09.796Z,3044.00
2018-07-16T04:32:09.714Z,3068.00
2018-07-16T04:33:09.619Z,3128.00
2018-07-16T04:34:09.517Z,3208.00
2018-07-16T04:35:09.427Z,3312.00
2018-07-16T04:36:09.320Z,3472.00
2018-07-16T04:37:09.227Z,3700.00
2018-07-16T04:38:09.139Z,3920.00
2018-07-16T04:39:09.048Z,4092.00
2018-07-16T04:40:08.945Z,4364.00
2018-07-16T04:41:08.851Z,4732.00
2018-07-16T04:42:08.761Z,4980.00
2018-07-16T04:43:08.661Z,5124.00
2018-07-16T04:44:08.579Z,5196.00
2018-07-16T04:45:08.482Z,5244.00
2018-07-16T04:46:08.386Z,5292.00
2018-07-16T04:47:08.283Z,5340.00
2018-07-16T04:48:08.195Z,5400.00
2018-07-16T04:49:08.106Z,5448.00
2018-07-16T04:50:08.003Z,5500.00
2018-07-16T04:51:07.908Z,5560.00
2018-07-16T04:52:07.815Z,5620.00
2018-07-16T04:53:07.722Z,5676.00
2018-07-16T04:54:07.639Z,5720.00
2018-07-16T04:55:07.536Z,5776.00
2018-07-16T04:56:07.489Z,5824.00
2018-07-16T04:57:07.350Z,5868.00
2018-07-16T04:58:07.257Z,5920.00
2018-07-16T04:59:07.166Z,5964.00
2018-07-16T05:00:07.078Z,6032.00
2018-07-16T05:01:06.988Z,6092.00
2018-07-16T05:02:06.895Z,6152.00
2018-07-16T05:03:06.797Z,6200.00
2018-07-16T05:04:06.706Z,6224.00
2018-07-16T05:05:06.612Z,6260.00
2018-07-16T05:06:06.524Z,6288.00
2018-07-16T05:07:06.436Z,6316.00
2018-07-16T05:08:06.339Z,6360.00
2018-07-16T05:09:06.246Z,6408.00
2018-07-16T05:10:06.158Z,6444.00
2018-07-16T05:11:06.070Z,6484.00
2018-07-16T05:12:05.978Z,6520.00
2018-07-16T05:13:05.887Z,6572.00
2018-07-16T05:14:05.794Z,6612.00
2018-07-16T05:15:05.701Z,6648.00
2018-07-16T05:16:05.619Z,6688.00
2018-07-16T05:17:05.531Z,6748.00
2018-07-16T05:18:05.501Z,6788.00
2018-07-16T05:19:05.341Z,6832.00
2018-07-16T05:20:05.267Z,6872.00
2018-07-16T05:21:05.176Z,6924.00
2018-07-16T05:22:05.081Z,6984.00
2018-07-16T05:23:04.991Z,7048.00
2018-07-16T05:24:04.902Z,7108.00
2018-07-16T05:25:04.813Z,7152.00
2018-07-16T05:26:04.722Z,7192.00
2018-07-16T05:27:04.633Z,7244.00
2018-07-16T05:28:04.536Z,7272.00
2018-07-16T05:29:04.455Z,7312.00
2018-07-16T05:30:04.365Z,7332.00
2018-07-16T05:31:04.275Z,7360.00
2018-07-16T05:32:04.239Z,7416.00
2018-07-16T05:33:04.094Z,7500.00
2018-07-16T05:34:04.003Z,7576.00
2018-07-16T05:35:03.927Z,7612.00
2018-07-16T05:36:03.837Z,7612.00
2018-07-16T05:37:03.746Z,7616.00
2018-07-16T05:38:03.665Z,7628.00
2018-07-16T05:39:03.564Z,7668.00
2018-07-16T05:40:03.483Z,7708.00
2018-07-16T05:41:03.388Z,7768.00
2018-07-16T05:42:03.306Z,7844.00
2018-07-16T05:43:03.214Z,7936.00
2018-07-16T05:44:03.132Z,8048.00
2018-07-16T05:45:03.041Z,8160.00
2018-07-16T05:46:02.947Z,8164.00
2018-07-16T05:47:02.860Z,8108.00
2018-07-16T05:48:02.783Z,8128.00
2018-07-16T05:49:02.692Z,8224.00
2018-07-16T05:50:02.603Z,8324.00
2018-07-16T05:51:02.519Z,8416.00
2018-07-16T05:52:02.432Z,8560.00
2018-07-16T05:53:02.342Z,8780.00
2018-07-16T05:54:02.265Z,9016.00
2018-07-16T05:55:02.177Z,9224.00
2018-07-16T05:56:02.081Z,9292.00
2018-07-16T05:57:02.001Z,9268.00
2018-07-16T05:58:01.912Z,9316.00
2018-07-16T05:59:01.823Z,9556.00
2018-07-16T06:00:01.740Z,10040.00
2018-07-16T06:01:01.655Z,10608.00
2018-07-16T06:02:01.560Z,10784.00
2018-07-16T06:03:01.482Z,10568.00
2018-07-16T06:04:01.394Z,10164.00
2018-07-16T06:05:01.316Z,9748.00
2018-07-16T06:06:01.222Z,9464.00
2018-07-16T06:07:01.130Z,9348.00
2018-07-16T06:08:01.056Z,9348.00
2018-07-16T06:09:00.966Z,9368.00
2018-07-16T06:10:00.884Z,9364.00
2018-07-16T06:11:00.796Z,9380.00
2018-07-16T06:12:00.700Z,9452.00
2018-07-16T06:13:00.621Z,9524.00
2018-07-16T06:14:00.536Z,9596.00
2018-07-16T06:15:00.459Z,9700.00
2018-07-16T06:16:00.370Z,9832.00
2018-07-16T06:17:00.289Z,9944.00
2018-07-16T06:18:00.191Z,9964.00
2018-07-16T06:19:00.114Z,9996.00
2018-07-16T06:20:00.033Z,10068.00
2018-07-16T06:20:59.952Z,10124.00
2018-07-16T06:21:59.853Z,10180.00
2018-07-16T06:22:59.779Z,10288.00
2018-07-16T06:23:59.693Z,10400.00
2018-07-16T06:24:59.610Z,10488.00
2018-07-16T06:25:59.521Z,10608.00
2018-07-16T06:26:59.447Z,10772.00
2018-07-16T06:27:59.349Z,11012.00
2018-07-16T06:28:59.271Z,11320.00
2018-07-16T06:29:59.181Z,11340.00
2018-07-16T06:30:59.102Z,11228.00
2018-07-16T06:31:59.009Z,11400.00
2018-07-16T06:32:58.930Z,11668.00
2018-07-16T06:33:58.841Z,11488.00
2018-07-16T06:34:58.763Z,11304.00
2018-07-16T06:35:58.678Z,11444.00
2018-07-16T06:36:58.598Z,11620.00
2018-07-16T06:37:58.520Z,11784.00
2018-07-16T06:38:58.428Z,11964.00
2018-07-16T06:39:58.362Z,12096.00
2018-07-16T06:40:58.404Z,12308.00
2018-07-16T06:41:58.176Z,12556.00
2018-07-16T06:42:58.100Z,12768.00
2018-07-16T06:43:58.010Z,12896.00
2018-07-16T06:44:57.932Z,12988.00
2018-07-16T06:45:57.853Z,13100.00
2018-07-16T06:46:57.761Z,13220.00
2018-07-16T06:47:57.687Z,13360.00
2018-07-16T06:48:57.599Z,13504.00
2018-07-16T06:49:57.529Z,13664.00
2018-07-16T06:50:57.436Z,13836.00
2018-07-16T06:51:57.343Z,14016.00
2018-07-16T06:52:57.268Z,14192.00
2018-07-16T06:53:57.190Z,14268.00
2018-07-16T06:54:57.109Z,14476.00
2018-07-16T06:55:57.016Z,14588.00
2018-07-16T06:56:56.937Z,14724.00
2018-07-16T06:57:56.853Z,14992.00
2018-07-16T06:58:56.771Z,15128.00
2018-07-16T06:59:56.698Z,15204.00
2018-07-16T07:00:56.606Z,15384.00
2018-07-16T07:01:56.521Z,15592.00
2018-07-16T07:02:56.444Z,15864.00
2018-07-16T07:03:56.359Z,16160.00
2018-07-16T07:04:56.280Z,16444.00
2018-07-16T07:05:56.203Z,16580.00
2018-07-16T07:06:56.112Z,16856.00
2018-07-16T07:07:56.029Z,18840.00
2018-07-16T07:08:55.950Z,16848.00
2018-07-16T07:09:55.935Z,16848.00
2018-07-16T07:10:55.789Z,17216.00
2018-07-16T07:11:55.704Z,17184.00
2018-07-16T07:12:55.626Z,17280.00
2018-07-16T07:13:55.531Z,17440.00
2018-07-16T07:14:55.453Z,17568.00
2018-07-16T07:15:55.378Z,17664.00
2018-07-16T07:16:55.289Z,18016.00
2018-07-16T07:17:55.210Z,18240.00
2018-07-16T07:18:55.130Z,18496.00
2018-07-16T07:19:55.056Z,18336.00
2018-07-16T07:20:54.969Z,18432.00
2018-07-16T07:21:54.884Z,18400.00
2018-07-16T07:22:54.806Z,18272.00
2018-07-16T07:23:54.723Z,18368.00
2018-07-16T07:24:54.634Z,18528.00
2018-07-16T07:25:54.559Z,18976.00
2018-07-16T07:26:54.481Z,19552.00
2018-07-16T07:27:54.407Z,20192.00
2018-07-16T07:28:54.309Z,20576.00
2018-07-16T07:29:54.230Z,20896.00
2018-07-16T07:30:54.152Z,21376.00
2018-07-16T07:31:54.078Z,22272.00
2018-07-16T07:32:53.988Z,23424.00
2018-07-16T07:33:53.904Z,24992.00
2018-07-16T07:34:53.860Z,26528.00
2018-07-16T07:35:53.757Z,28096.00
2018-07-16T07:36:53.661Z,31712.00
2018-07-16T07:37:53.583Z,38752.00
2018-07-16T07:38:53.506Z,47488.00
2018-07-16T07:39:53.445Z,58208.00
2018-07-16T07:40:53.344Z,64896.00
2018-07-16T07:41:53.257Z,68768.00
2018-07-16T07:42:53.178Z,68992.00
2018-07-16T07:43:53.096Z,69216.00
2018-07-16T07:44:53.017Z,67520.00
2018-07-16T07:45:52.941Z,71296.00
2018-07-16T07:46:52.851Z,77056.00
2018-07-16T07:47:52.775Z,84320.00
2018-07-16T07:48:52.698Z,88640.00
2018-07-16T07:49:52.614Z,90336.00
2018-07-16T07:50:52.534Z,96192.00
2018-07-16T07:51:52.449Z,100000.00
2018-07-16T07:52:52.370Z,104704.00
2018-07-16T07:53:52.294Z,110752.00
2018-07-16T07:54:52.419Z,113888.00
2018-07-16T07:55:52.135Z,126144.00
2018-07-16T07:56:52.054Z,135616.00
2018-07-16T07:57:51.968Z,148064.00
2018-07-16T07:58:51.889Z,161216.00
2018-07-16T07:59:51.806Z,159936.00
2018-07-16T08:00:51.728Z,149408.00
2018-07-16T08:01:51.648Z,129824.00
2018-07-16T08:02:51.558Z,115776.00
2018-07-16T08:03:51.484Z,106176.00
2018-07-16T08:04:51.405Z,96960.00
2018-07-16T08:05:51.328Z,92928.00
2018-07-16T08:06:51.247Z,85536.00
2018-07-16T08:07:51.159Z,81888.00
2018-07-16T08:08:51.081Z,77984.00
2018-07-16T08:09:51.000Z,76608.00
2018-07-16T08:10:50.922Z,71392.00
2018-07-16T08:11:50.829Z,49184.00
2018-07-16T08:12:50.750Z,25120.00
2018-07-16T08:13:50.715Z,10940.00
2018-07-16T08:14:50.596Z,9356.00
2018-07-16T08:15:50.501Z,8980.00
2018-07-16T08:16:50.435Z,8744.00
2018-07-16T08:17:50.354Z,8608.00
2018-07-16T08:18:50.256Z,8556.00
2018-07-16T08:19:50.184Z,8564.00
2018-07-16T08:20:50.105Z,8572.00
2018-07-16T08:21:50.007Z,8580.00
2018-07-16T08:22:49.929Z,8580.00
2018-07-16T08:23:49.842Z,8664.00
2018-07-16T08:24:49.764Z,8684.00
2018-07-16T08:25:49.677Z,8928.00
2018-07-16T08:26:49.596Z,9712.00
2018-07-16T08:27:49.501Z,10584.00
2018-07-16T08:28:49.424Z,11308.00
2018-07-16T08:29:49.336Z,11740.00
2018-07-16T08:30:49.259Z,11724.00
2018-07-16T08:31:49.165Z,11800.00
2018-07-16T08:32:49.073Z,10892.00
2018-07-16T08:33:48.992Z,9932.00
2018-07-16T08:34:48.902Z,9672.00
2018-07-16T08:35:48.827Z,9484.00
2018-07-16T08:36:48.736Z,9256.00
2018-07-16T08:37:48.644Z,9244.00
2018-07-16T08:38:48.565Z,9140.00
2018-07-16T08:39:48.478Z,9224.00
2018-07-16T08:40:48.388Z,9348.00
2018-07-16T08:41:48.294Z,9512.00
2018-07-16T08:42:48.217Z,9808.00
2018-07-16T08:43:48.122Z,11912.00
2018-07-16T08:44:48.031Z,19840.00
2018-07-16T08:45:47.941Z,32512.00
2018-07-16T08:46:47.863Z,42464.00
2018-07-16T08:47:47.788Z,47232.00
2018-07-16T08:48:47.684Z,49856.00
2018-07-16T08:49:47.595Z,50272.00
2018-07-16T08:50:47.529Z,52416.00
2018-07-16T08:51:47.422Z,51552.00
2018-07-16T08:52:47.336Z,51744.00
2018-07-16T08:53:47.245Z,52960.00
2018-07-16T08:54:47.165Z,54272.00
2018-07-16T08:55:47.071Z,52480.00
2018-07-16T08:56:46.981Z,51808.00
2018-07-16T08:57:46.902Z,52288.00
2018-07-16T08:58:46.813Z,52608.00
2018-07-16T08:59:46.739Z,52128.00
2018-07-16T09:00:46.647Z,51360.00
2018-07-16T09:01:46.565Z,52288.00
2018-07-16T09:02:46.473Z,54176.00
2018-07-16T09:03:46.398Z,55552.00
2018-07-16T09:04:46.309Z,57344.00
2018-07-16T09:05:46.228Z,55840.00
2018-07-16T09:06:46.149Z,53664.00
2018-07-16T09:07:46.055Z,52192.00
2018-07-16T09:08:45.975Z,52992.00
2018-07-16T09:09:45.892Z,56000.00
2018-07-16T09:10:45.817Z,58496.00
2018-07-16T09:11:45.737Z,60480.00
2018-07-16T09:12:45.646Z,61920.00
2018-07-16T09:13:45.560Z,62784.00
2018-07-16T09:14:45.481Z,63104.00
2018-07-16T09:15:45.407Z,62720.00
2018-07-16T09:16:45.340Z,60640.00
2018-07-16T09:17:45.237Z,58176.00
2018-07-16T09:18:45.155Z,56000.00
2018-07-16T09:19:45.082Z,53600.00
2018-07-16T09:20:45.004Z,52672.00
2018-07-16T09:21:44.927Z,53248.00
2018-07-16T09:22:44.837Z,52832.00
2018-07-16T09:23:44.752Z,53184.00
2018-07-16T09:24:44.675Z,52096.00
2018-07-16T09:25:44.611Z,52992.00
2018-07-16T09:26:44.521Z,53568.00
2018-07-16T09:27:44.437Z,52768.00
2018-07-16T09:28:44.359Z,36320.00
2018-07-16T09:29:44.283Z,55744.00
2018-07-16T09:30:44.205Z,55488.00
2018-07-16T09:31:44.130Z,55328.00
2018-07-16T09:32:44.047Z,55136.00
2018-07-16T09:33:43.958Z,55936.00
2018-07-16T09:34:43.879Z,56960.00
2018-07-16T09:35:43.806Z,57216.00
2018-07-16T09:36:43.728Z,56384.00
2018-07-16T09:37:43.648Z,56096.00
2018-07-16T09:38:43.569Z,57664.00
2018-07-16T09:39:43.486Z,58272.00
2018-07-16T09:40:43.407Z,58688.00
2018-07-16T09:41:43.335Z,59072.00
2018-07-16T09:42:43.268Z,60320.00
2018-07-16T09:43:43.174Z,61152.00
2018-07-16T09:44:43.096Z,60800.00
2018-07-16T09:45:43.016Z,59616.00
2018-07-16T09:46:42.940Z,59424.00
2018-07-16T09:47:42.863Z,61024.00
2018-07-16T09:48:42.785Z,58656.00
2018-07-16T09:49:42.705Z,58368.00
2018-07-16T09:50:42.627Z,57728.00
2018-07-16T09:51:42.565Z,58112.00
2018-07-16T09:52:42.474Z,56608.00
2018-07-16T09:53:42.394Z,55648.00
2018-07-16T09:54:42.315Z,55040.00
2018-07-16T09:55:42.234Z,54880.00
2018-07-16T09:56:42.155Z,54432.00
2018-07-16T09:57:42.098Z,53856.00
2018-07-16T09:58:42.016Z,53696.00
2018-07-16T09:59:41.933Z,52416.00
2018-07-16T10:00:41.855Z,51520.00
2018-07-16T10:01:41.774Z,50272.00
2018-07-16T10:02:41.696Z,50528.00
2018-07-16T10:03:41.622Z,51424.00
2018-07-16T10:04:41.557Z,52288.00
2018-07-16T10:05:41.461Z,52128.00
2018-07-16T10:06:41.382Z,50240.00
2018-07-16T10:07:41.309Z,50016.00
2018-07-16T10:08:41.232Z,48224.00
2018-07-16T10:09:41.155Z,47264.00
2018-07-16T10:10:41.076Z,46208.00
2018-07-16T10:11:40.994Z,46048.00
2018-07-16T10:12:40.917Z,46144.00
2018-07-16T10:13:40.853Z,45632.00
2018-07-16T10:14:40.761Z,45536.00
2018-07-16T10:15:40.679Z,44864.00
2018-07-16T10:16:40.613Z,49184.00
2018-07-16T10:17:40.538Z,82336.00
2018-07-16T10:18:40.460Z,155360.00
2018-07-16T10:19:40.385Z,204960.00
2018-07-16T10:20:40.386Z,184800.00
2018-07-16T10:21:40.225Z,169952.00
2018-07-16T10:22:40.146Z,165472.00
2018-07-16T10:23:40.071Z,159104.00
2018-07-16T10:24:39.994Z,153472.00
2018-07-16T10:25:39.924Z,151040.00
2018-07-16T10:26:39.847Z,147008.00
2018-07-16T10:27:39.766Z,145600.00
2018-07-16T10:28:39.688Z,142784.00
2018-07-16T10:29:39.616Z,140288.00
2018-07-16T10:30:39.537Z,146528.00
2018-07-16T10:31:39.454Z,154496.00
2018-07-16T10:32:39.388Z,154560.00
2018-07-16T10:33:39.354Z,150944.00
2018-07-16T10:34:39.231Z,152480.00
2018-07-16T10:35:39.155Z,151552.00
2018-07-16T10:36:39.089Z,152672.00
2018-07-16T10:37:39.006Z,150560.00
2018-07-16T10:38:38.928Z,148800.00
2018-07-16T10:39:38.854Z,105056.00
2018-07-16T10:40:38.788Z,138464.00
2018-07-16T10:41:38.712Z,153216.00
2018-07-16T10:42:38.634Z,152736.00
2018-07-16T10:43:38.577Z,150144.00
2018-07-16T10:44:38.486Z,145952.00
2018-07-16T10:45:38.410Z,131488.00
2018-07-16T10:46:38.344Z,120608.00
2018-07-16T10:47:38.266Z,119392.00
2018-07-16T10:48:38.186Z,119328.00
2018-07-16T10:49:38.182Z,117280.00
2018-07-16T10:50:38.040Z,114080.00
2018-07-16T10:51:37.966Z,111808.00
2018-07-16T10:52:37.901Z,115136.00
2018-07-16T10:53:37.822Z,119104.00
2018-07-16T10:54:37.744Z,121696.00
2018-07-16T10:55:37.673Z,120992.00
2018-07-16T10:56:37.595Z,119040.00
2018-07-16T10:57:37.514Z,104800.00
2018-07-16T10:58:37.450Z,16084.00
2018-07-16T10:59:37.375Z,39264.00
2018-07-16T11:00:37.297Z,117792.00
2018-07-16T11:01:37.229Z,116320.00
2018-07-16T11:02:37.150Z,114432.00
2018-07-16T11:03:37.076Z,113504.00
2018-07-16T11:04:36.997Z,116064.00
2018-07-16T11:05:36.931Z,116576.00
2018-07-16T11:06:36.852Z,116320.00
2018-07-16T11:07:36.769Z,115680.00
2018-07-16T11:08:36.692Z,114272.00
2018-07-16T11:09:36.629Z,115232.00
2018-07-16T11:10:36.550Z,116768.00
2018-07-16T11:11:36.468Z,120224.00
2018-07-16T11:12:36.389Z,118816.00
2018-07-16T11:13:36.314Z,114048.00
2018-07-16T11:14:36.235Z,24640.00
2018-07-16T11:15:36.162Z,16576.00
2018-07-16T11:16:36.009Z,17864.00
2018-07-16T11:17:36.014Z,33440.00
2018-07-16T11:18:35.933Z,34816.00
2018-07-16T11:19:35.859Z,100576.00
2018-07-16T11:20:35.780Z,116256.00
2018-07-16T11:21:35.706Z,117632.00
2018-07-16T11:22:35.628Z,115840.00
2018-07-16T11:23:35.543Z,116064.00
2018-07-16T11:24:35.465Z,115520.00
2018-07-16T11:25:35.395Z,118240.00
2018-07-16T11:26:35.313Z,120480.00
2018-07-16T11:27:35.233Z,120416.00
2018-07-16T11:28:35.159Z,120352.00
2018-07-16T11:29:35.072Z,125984.00
2018-07-16T11:30:34.993Z,137888.00
2018-07-16T11:31:34.919Z,136320.00
2018-07-16T11:32:34.841Z,124864.00
2018-07-16T11:33:34.762Z,105280.00
2018-07-16T11:34:34.682Z,107968.00
2018-07-16T11:35:34.691Z,113824.00
2018-07-16T11:36:34.530Z,114752.00
2018-07-16T11:37:34.450Z,97344.00
2018-07-16T11:38:34.371Z,29024.00
2018-07-16T11:39:34.289Z,72832.00
2018-07-16T11:40:34.210Z,91488.00
2018-07-16T11:41:34.141Z,82944.00
2018-07-16T11:42:34.058Z,74080.00
2018-07-16T11:43:33.980Z,61024.00
2018-07-16T11:44:33.897Z,46112.00
2018-07-16T11:45:33.822Z,35840.00
2018-07-16T11:46:33.746Z,26368.00
2018-07-16T11:47:33.581Z,18208.00
2018-07-16T11:48:33.579Z,11936.00
2018-07-16T11:49:33.493Z,8932.00
2018-07-16T11:50:33.427Z,9184.00
2018-07-16T11:51:33.343Z,8840.00
2018-07-16T11:52:33.264Z,8240.00
2018-07-16T11:53:33.185Z,8192.00
2018-07-16T11:54:33.095Z,8128.00
2018-07-16T11:55:33.012Z,8112.00
2018-07-16T11:56:32.938Z,8048.00
2018-07-16T11:57:32.858Z,7996.00
2018-07-16T11:58:32.767Z,7936.00
2018-07-16T11:59:32.684Z,7932.00
2018-07-16T12:00:32.595Z,8152.00
2018-07-16T12:01:32.518Z,8656.00
2018-07-16T12:02:32.440Z,9160.00
2018-07-16T12:03:32.437Z,9700.00
2018-07-16T12:04:32.275Z,25472.00
2018-07-16T12:05:32.178Z,79872.00
2018-07-16T12:06:32.100Z,103008.00
2018-07-16T12:07:32.014Z,101280.00
2018-07-16T12:08:31.934Z,100416.00
2018-07-16T12:09:31.845Z,100096.00